Time;durP1;ratioP1;P1;durP2;ratioP2;P2;SDS_P1;SDS_P2;PMS_P1;PMS_P2;Temp;Humidity;BMP_temperature;BMP_pressure;BME280_temperature;BME280_humidity;BME280_pressure;Samples;Min_cycle;Max_cycle;Signal;HPM_P1;HPM_P2
2021/01/27 00:00:24;;;;;;;23.95;13.38;;;;;;;-1.37;86.67;100340.06;4955098;28;20059;-75
2021/01/27 00:02:50;;;;;;;23.08;12.82;;;;;;;-1.24;86.33;100341.66;4939260;28;20145;-75
2021/01/27 00:05:20;;;;;;;26.42;12.98;;;;;;;-1.19;85.75;100345.63;4955432;28;20074;-75
2021/01/27 00:07:47;;;;;;;24.05;12.90;;;;;;;-1.35;85.93;100350.63;4939253;28;20096;-75
2021/01/27 00:10:14;;;;;;;24.35;13.50;;;;;;;-1.54;86.43;100345.22;4971503;28;20053;-75
2021/01/27 00:12:40;;;;;;;22.60;12.20;;;;;;;-1.21;86.49;100354.75;4970399;28;20050;-75
2021/01/27 00:15:10;;;;;;;22.33;12.82;;;;;;;-1.28;86.70;100348.25;4972640;28;20125;-75
2021/01/27 00:17:36;;;;;;;;;;;;;;;-1.17;86.32;100345.47;4971280;28;20594;-74
2021/01/27 00:20:05;;;;;;;24.15;11.82;;;;;;;-1.26;86.00;100349.81;4955302;28;20459;-75
2021/01/27 00:22:31;;;;;;;26.90;13.30;;;;;;;-1.25;86.03;100342.63;4971040;28;20674;-75
2021/01/27 00:24:57;;;;;;;23.25;12.38;;;;;;;-1.16;85.54;100341.81;4970826;28;20069;-75
2021/01/27 00:27:23;;;;;;;22.52;11.65;;;;;;;-1.01;85.87;100338.59;4954908;28;20073;-75
2021/01/27 00:29:50;;;;;;;20.20;11.88;;;;;;;-0.73;84.22;100336.94;4954752;28;20053;-75
2021/01/27 00:32:16;;;;;;;22.10;12.13;;;;;;;-0.56;83.39;100338.03;4970333;28;20458;-75
2021/01/27 00:34:43;;;;;;;20.98;11.45;;;;;;;-0.30;82.42;100338.28;4954495;28;20054;-75
2021/01/27 00:37:10;;;;;;;21.40;10.45;;;;;;;-0.18;81.68;100334.47;4952024;28;20054;-75
2021/01/27 00:39:36;;;;;;;19.10;11.20;;;;;;;-0.02;80.64;100332.06;5015085;28;20058;-75
2021/01/27 00:42:03;;;;;;;19.58;11.32;;;;;;;0.02;79.63;100321.03;4955156;28;20058;-75
2021/01/27 00:44:29;;;;;;;19.33;11.07;;;;;;;0.04;79.84;100319.03;4970939;28;20390;-74
2021/01/27 00:46:55;;;;;;;18.00;10.80;;;;;;;0.19;79.21;100317.59;4970367;28;20108;-75
2021/01/27 00:49:23;;;;;;;19.20;11.13;;;;;;;0.10;79.70;100318.47;4954967;28;20047;-76
2021/01/27 00:51:50;;;;;;;17.85;10.30;;;;;;;0.11;79.42;100310.28;4970729;28;20050;-75
2021/01/27 00:54:17;;;;;;;19.30;10.95;;;;;;;0.29;78.56;100310.38;4938676;28;20046;-75
2021/01/27 00:56:43;;;;;;;18.38;9.98;;;;;;;0.33;78.52;100311.75;4957286;28;20509;-74
2021/01/27 00:59:10;;;;;;;18.63;10.18;;;;;;;0.33;78.05;100304.56;4970571;28;20108;-75
2021/01/27 01:01:39;;;;;;;;;;;;;;;0.35;78.50;100312.44;4955194;28;20625;-75
2021/01/27 01:04:12;;;;;;;17.48;9.32;;;;;;;0.36;77.84;100311.44;4955377;28;19922;-75
2021/01/27 01:06:38;;;;;;;17.08;10.38;;;;;;;0.23;78.59;100310.94;4954559;28;20054;-75
2021/01/27 01:09:05;;;;;;;19.02;10.70;;;;;;;0.24;78.79;100309.97;4954390;28;20057;-75
2021/01/27 01:11:31;;;;;;;18.60;10.65;;;;;;;0.16;78.57;100307.16;4954679;28;20134;-75
2021/01/27 01:13:58;;;;;;;19.50;10.88;;;;;;;-0.11;79.05;100318.69;4970411;28;20070;-75
2021/01/27 01:16:24;;;;;;;18.75;10.52;;;;;;;-0.39;80.38;100317.75;4970240;28;20058;-75
2021/01/27 01:18:51;;;;;;;19.10;10.65;;;;;;;-0.58;80.90;100318.59;4954117;28;20054;-74
2021/01/27 01:21:18;;;;;;;24.75;11.55;;;;;;;-0.82;81.99;100320.88;4970449;28;20046;-75
2021/01/27 01:23:45;;;;;;;20.55;11.90;;;;;;;-0.86;82.12;100320.31;4970787;28;20054;-75
2021/01/27 01:26:11;;;;;;;20.73;11.80;;;;;;;-1.00;82.62;100318.03;4972681;28;20053;-74
2021/01/27 01:28:37;;;;;;;20.70;11.48;;;;;;;-0.80;82.29;100316.25;4957090;28;20401;-75
2021/01/27 01:31:04;;;;;;;18.88;10.68;;;;;;;-0.84;82.68;100313.00;4957295;28;20142;-75
2021/01/27 01:33:31;;;;;;;19.63;10.55;;;;;;;-0.87;82.11;100315.94;4957273;28;20050;-75
2021/01/27 01:35:58;;;;;;;19.48;10.48;;;;;;;-0.95;82.24;100315.78;4956534;28;20070;-75
2021/01/27 01:38:25;;;;;;;17.30;10.35;;;;;;;-1.13;83.18;100306.78;4970954;28;20051;-76
2021/01/27 01:40:57;;;;;;;20.10;10.88;;;;;;;-1.20;83.84;100309.16;4950970;28;20412;-74
2021/01/27 01:43:33;;;;;;;17.73;10.25;;;;;;;-1.38;84.88;100295.63;4966059;28;20100;-75
2021/01/27 01:46:14;;;;;;;20.58;10.82;;;;;;;-1.51;84.18;100303.06;4956440;28;20050;-75
2021/01/27 01:49:03;;;;;;;19.00;9.90;;;;;;;-1.40;84.64;100304.78;4973179;28;20078;-74
2021/01/27 01:51:51;;;;;;;18.63;10.48;;;;;;;-1.39;84.09;100307.28;5009174;23;20146;-73
2021/01/27 01:54:28;;;;;;;20.23;10.85;;;;;;;-1.45;84.24;100309.69;5071643;28;20125;-73
2021/01/27 01:56:56;;;;;;;19.42;10.57;;;;;;;-1.51;84.95;100307.56;4993842;28;20141;-73
2021/01/27 01:59:23;;;;;;;20.20;10.50;;;;;;;-1.66;85.38;100304.41;5076750;28;20046;-72
2021/01/27 02:01:52;;;;;;;20.73;10.55;;;;;;;-1.49;85.15;100306.44;5041779;28;20153;-73
2021/01/27 02:04:19;;;;;;;18.33;10.60;;;;;;;-1.41;84.70;100305.75;4956943;28;20049;-74
2021/01/27 02:06:45;;;;;;;16.52;9.57;;;;;;;-1.45;84.52;100296.31;4954862;28;20459;-73
2021/01/27 02:09:12;;;;;;;19.40;10.35;;;;;;;-1.48;84.69;100296.59;4992501;28;20073;-72
2021/01/27 02:11:41;;;;;;;19.25;11.02;;;;;;;-1.40;83.89;100299.44;5003532;28;21404;-74
2021/01/27 02:14:33;;;;;;;21.45;10.65;;;;;;;-1.52;84.18;100296.03;4992197;28;20041;-73
2021/01/27 02:17:02;;;;;;;16.52;9.52;;;;;;;-1.64;84.81;100293.59;4981095;28;20081;-74
2021/01/27 02:19:47;;;;;;;;;;;;;;;-1.69;85.57;100294.84;4976362;28;20049;-74
2021/01/27 02:22:36;;;;;;;17.05;9.52;;;;;;;-1.67;85.49;100293.84;5060275;28;19921;-73
2021/01/27 02:25:15;;;;;;;21.05;10.82;;;;;;;-1.75;85.71;100295.41;4992255;28;20125;-73
2021/01/27 02:27:52;;;;;;;21.30;10.07;;;;;;;-1.73;85.60;100292.56;4991978;28;20050;-73
2021/01/27 02:30:43;;;;;;;20.10;10.52;;;;;;;-1.60;85.40;100290.50;4972799;28;20285;-74
2021/01/27 02:33:47;;;;;;;16.80;9.32;;;;;;;-1.75;85.77;100290.06;4997370;28;20126;-74
2021/01/27 02:36:22;;;;;;;18.55;10.20;;;;;;;-1.70;86.72;100284.28;4995890;28;20077;-74
2021/01/27 02:39:03;;;;;;;20.90;10.75;;;;;;;-1.49;85.71;100286.88;4988797;28;20507;-74
2021/01/27 02:41:54;;;;;;;22.95;10.90;;;;;;;-1.65;85.92;100292.75;4940765;28;20644;-74
2021/01/27 02:44:23;;;;;;;19.38;10.63;;;;;;;-1.36;84.57;100290.13;4989485;28;20515;-74
2021/01/27 02:46:51;;;;;;;19.10;9.90;;;;;;;-1.20;83.86;100290.44;4975690;28;20695;-73
2021/01/27 02:49:27;;;;;;;20.88;10.07;;;;;;;-1.02;83.50;100282.56;4991980;28;20049;-74
2021/01/27 02:52:03;;;;;;;19.95;10.20;;;;;;;-0.86;82.99;100287.38;4991363;28;20507;-74
2021/01/27 02:54:41;;;;;;;19.65;10.50;;;;;;;-0.72;82.75;100278.94;4958978;28;20048;-73
2021/01/27 02:57:16;;;;;;;20.27;10.55;;;;;;;-0.52;82.23;100279.72;4972190;28;20570;-73
2021/01/27 02:59:49;;;;;;;20.15;10.63;;;;;;;-0.44;81.90;100277.19;4989875;28;20560;-73
2021/01/27 03:02:18;;;;;;;19.67;10.20;;;;;;;-0.24;81.16;100273.47;4972401;28;20051;-74
2021/01/27 03:04:54;;;;;;;21.65;10.80;;;;;;;-0.11;80.74;100274.00;4973748;28;20615;-74
2021/01/27 03:07:21;;;;;;;19.27;10.18;;;;;;;-0.13;81.06;100270.63;4959319;28;20042;-73
2021/01/27 03:10:08;;;;;;;20.33;10.60;;;;;;;0.03;79.72;100269.97;4975090;28;20426;-73
2021/01/27 03:12:35;;;;;;;20.83;10.82;;;;;;;0.03;80.14;100269.97;4972126;28;20060;-74
2021/01/27 03:15:05;;;;;;;22.10;11.38;;;;;;;0.13;80.22;100264.59;4950848;28;20053;-75
2021/01/27 03:17:31;;;;;;;18.42;10.57;;;;;;;0.10;79.76;100268.41;4991552;28;20050;-75
2021/01/27 03:20:07;;;;;;;20.48;11.68;;;;;;;0.23;80.20;100265.41;4991125;28;20507;-74
2021/01/27 03:22:39;;;;;;;19.50;11.25;;;;;;;0.23;79.66;100258.19;4971792;28;20500;-73
2021/01/27 03:25:09;;;;;;;20.42;11.82;;;;;;;0.17;80.24;100261.47;4988453;28;20453;-73
2021/01/27 03:27:51;;;;;;;21.30;11.50;;;;;;;0.17;80.62;100260.63;4959435;28;20140;-74
2021/01/27 03:30:17;;;;;;;20.30;11.25;;;;;;;-0.26;82.01;100270.09;4976567;28;20486;-73
2021/01/27 03:32:51;;;;;;;21.08;12.07;;;;;;;-0.36;82.63;100263.94;4990811;28;20125;-73
2021/01/27 03:35:25;;;;;;;22.58;12.85;;;;;;;-0.59;83.80;100266.06;4959285;28;20095;-74
2021/01/27 03:37:57;;;;;;;26.33;12.57;;;;;;;-0.64;84.71;100267.50;4989456;28;20141;-73
2021/01/27 03:40:24;;;;;;;23.10;12.75;;;;;;;-0.72;84.57;100257.53;4965118;28;20141;-73
2021/01/27 03:43:13;;;;;;;24.38;12.98;;;;;;;-0.85;85.00;100257.81;4988448;28;20523;-73
2021/01/27 03:45:46;;;;;;;24.63;13.60;;;;;;;-0.99;85.82;100260.91;4985538;28;20073;-73
2021/01/27 03:48:45;;;;;;;30.27;13.82;;;;;;;-1.13;86.78;100261.34;4990563;28;20137;-72
2021/01/27 03:51:12;;;;;;;24.27;12.70;;;;;;;-1.21;87.25;100261.19;4974874;28;20080;-73
2021/01/27 03:53:40;;;;;;;25.33;14.07;;;;;;;-1.20;87.86;100269.06;4942910;28;20500;-73
2021/01/27 03:56:24;;;;;;;29.15;13.85;;;;;;;-1.20;88.04;100274.41;4974741;28;20073;-73
2021/01/27 03:58:50;;;;;;;28.60;14.48;;;;;;;-1.18;87.63;100272.44;4974257;28;20066;-73
2021/01/27 04:01:22;;;;;;;29.67;14.77;;;;;;;-1.00;88.08;100272.56;4987079;28;20519;-73
2021/01/27 04:03:53;;;;;;;30.13;15.52;;;;;;;-0.79;87.48;100267.94;4988937;28;20388;-73
2021/01/27 04:06:20;;;;;;;25.45;13.63;;;;;;;-0.65;86.20;100260.44;4991094;28;20449;-73
2021/01/27 04:08:47;;;;;;;26.40;13.95;;;;;;;-0.62;86.36;100262.84;4991031;28;20585;-72
2021/01/27 04:11:13;;;;;;;29.50;15.07;;;;;;;-0.45;85.95;100262.13;5008123;28;20396;-73
2021/01/27 04:13:40;;;;;;;30.98;15.23;;;;;;;-0.28;85.78;100264.03;4971121;28;20141;-73
2021/01/27 04:16:07;;;;;;;28.92;15.18;;;;;;;-0.24;85.84;100261.91;4989768;28;20050;-72
2021/01/27 04:18:33;;;;;;;33.25;16.23;;;;;;;0.10;84.14;100267.56;4974373;28;20052;-73
2021/01/27 04:20:59;;;;;;;29.27;15.90;;;;;;;-0.01;84.70;100266.78;5008121;28;20063;-73
2021/01/27 04:23:25;;;;;;;26.30;15.43;;;;;;;0.05;84.18;100253.75;4974894;28;20125;-72
2021/01/27 04:25:52;;;;;;;28.45;15.20;;;;;;;0.05;84.23;100251.94;4972793;28;20713;-72
2021/01/27 04:28:18;;;;;;;26.80;14.52;;;;;;;-0.17;85.11;100255.81;4990874;28;20073;-74
2021/01/27 04:30:45;;;;;;;32.17;15.05;;;;;;;-0.24;85.75;100245.84;4990857;28;20100;-73
2021/01/27 04:33:11;;;;;;;29.13;15.13;;;;;;;-0.36;85.55;100251.41;5008088;28;20133;-72
2021/01/27 04:35:38;;;;;;;27.52;14.20;;;;;;;-0.43;86.27;100249.44;4990469;28;20472;-72
2021/01/27 04:38:05;;;;;;;27.70;15.35;;;;;;;-0.43;86.79;100252.13;4974522;28;20525;-74
2021/01/27 04:40:37;;;;;;;30.45;15.77;;;;;;;-0.46;86.52;100250.56;5007910;28;20054;-73
2021/01/27 04:43:12;;;;;;;28.20;14.35;;;;;;;-0.44;86.08;100245.06;4971474;28;20124;-71
2021/01/27 04:45:39;;;;;;;29.60;14.88;;;;;;;-0.46;86.76;100239.00;4986669;28;20605;-72
2021/01/27 04:48:12;;;;;;;26.83;14.50;;;;;;;-0.49;86.35;100228.59;5007519;28;20133;-73
2021/01/27 04:50:45;;;;;;;28.98;14.95;;;;;;;-0.52;86.84;100235.06;4989897;28;20511;-73
2021/01/27 04:53:33;;;;;;;28.50;15.00;;;;;;;-0.58;86.75;100226.78;4989920;28;20635;-73
2021/01/27 04:56:06;;;;;;;27.67;15.25;;;;;;;-0.60;86.93;100228.75;5004167;28;20070;-73
2021/01/27 04:58:51;;;;;;;33.58;15.98;;;;;;;-0.67;87.07;100228.47;4999611;28;20141;-73
2021/01/27 05:01:50;;;;;;;28.38;15.25;;;;;;;-0.76;87.44;100219.50;4976038;28;20050;-73
2021/01/27 05:04:45;;;;;;;32.50;16.55;;;;;;;-0.75;88.34;100212.31;4998708;28;20137;-73
2021/01/27 05:07:15;;;;;;;30.50;16.42;;;;;;;-0.71;88.23;100211.91;4973129;28;20038;-74
2021/01/27 05:09:55;;;;;;;32.97;16.20;;;;;;;-0.74;88.21;100212.19;4966428;28;20061;-73
2021/01/27 05:12:24;;;;;;;32.67;16.55;;;;;;;-0.72;88.02;100204.84;4989686;28;20054;-73
2021/01/27 05:14:51;;;;;;;31.13;15.93;;;;;;;-0.69;88.19;100209.03;4993398;28;20046;-73
2021/01/27 05:17:19;;;;;;;31.77;16.10;;;;;;;-0.68;88.22;100203.56;4992981;28;20542;-72
2021/01/27 05:19:48;;;;;;;31.40;16.38;;;;;;;-0.64;88.14;100206.78;4961120;28;20503;-73
2021/01/27 05:22:15;;;;;;;31.87;15.60;;;;;;;-0.61;88.23;100200.31;4973952;28;20085;-74
2021/01/27 05:24:42;;;;;;;31.83;16.52;;;;;;;-0.55;88.15;100199.72;4993359;28;20053;-73
2021/01/27 05:27:14;;;;;;;29.63;16.15;;;;;;;-0.53;87.69;100195.09;4957787;28;20082;-74
2021/01/27 05:29:54;;;;;;;31.17;16.02;;;;;;;-0.51;87.38;100193.94;4992023;28;20052;-74
2021/01/27 05:32:24;;;;;;;31.70;16.25;;;;;;;-0.46;87.48;100194.34;4973818;28;20101;-73
2021/01/27 05:34:54;;;;;;;29.60;15.95;;;;;;;-0.43;87.69;100196.75;4982791;28;20491;-74
2021/01/27 05:37:26;;;;;;;29.90;16.02;;;;;;;-0.35;86.90;100188.81;4974704;28;20047;-73
2021/01/27 05:40:13;;;;;;;31.98;17.02;;;;;;;-0.32;87.28;100193.03;4992895;28;20050;-73
2021/01/27 05:42:40;;;;;;;31.55;16.38;;;;;;;-0.13;86.36;100190.28;4977009;28;20073;-73
2021/01/27 05:45:42;;;;;;;33.42;17.67;;;;;;;-0.17;86.87;100191.56;4991542;28;20046;-73
2021/01/27 05:48:32;;;;;;;30.40;17.27;;;;;;;-0.02;85.45;100198.13;4980728;28;20143;-73
2021/01/27 05:51:01;;;;;;;30.20;15.77;;;;;;;-0.04;85.47;100189.41;4976162;28;20107;-73
2021/01/27 05:53:28;;;;;;;;;;;;;;;0.07;85.28;100201.72;5009972;28;20042;-73
2021/01/27 05:56:16;;;;;;;31.73;16.98;;;;;;;0.25;84.59;100199.09;4992477;28;20370;-73
2021/01/27 05:59:04;;;;;;;31.35;16.60;;;;;;;0.16;85.17;100194.63;5009905;28;20132;-73
2021/01/27 06:01:36;;;;;;;33.20;18.90;;;;;;;0.36;84.65;100188.16;4975727;28;20050;-74
2021/01/27 06:04:10;;;;;;;30.48;17.05;;;;;;;0.38;83.52;100196.03;4975102;28;20092;-73
2021/01/27 06:06:40;;;;;;;31.48;17.80;;;;;;;0.26;84.04;100195.44;5009890;28;20050;-73
2021/01/27 06:09:07;;;;;;;32.30;15.90;;;;;;;0.23;83.67;100195.72;4991901;28;20042;-73
2021/01/27 06:11:33;;;;;;;30.88;17.08;;;;;;;0.52;83.71;100198.22;4992291;28;20054;-73
2021/01/27 06:14:11;;;;;;;30.05;17.42;;;;;;;0.52;82.59;100193.69;5009697;28;20046;-73
2021/01/27 06:16:45;;;;;;;26.67;15.48;;;;;;;0.35;83.63;100199.88;4988510;28;20102;-73
2021/01/27 06:19:24;;;;;;;27.50;16.40;;;;;;;0.62;82.00;100199.84;4976332;28;20061;-72
2021/01/27 06:22:14;;;;;;;31.20;18.20;;;;;;;0.66;82.56;100200.38;4992084;28;20132;-72
2021/01/27 06:24:48;;;;;;;28.85;16.95;;;;;;;0.89;81.26;100198.06;4958040;28;20050;-73
2021/01/27 06:27:36;;;;;;;28.40;16.05;;;;;;;0.82;81.21;100197.84;4992045;28;20133;-73
2021/01/27 06:30:14;;;;;;;29.48;16.55;;;;;;;0.66;81.90;100197.69;4991987;28;20084;-72
2021/01/27 06:33:06;;;;;;;29.00;16.63;;;;;;;0.58;81.98;100201.13;4995941;28;20054;-73
2021/01/27 06:35:59;;;;;;;33.67;18.10;;;;;;;0.48;82.00;100189.63;5003840;28;20046;-73
2021/01/27 06:38:40;;;;;;;31.13;17.88;;;;;;;0.54;82.36;100191.69;4990465;28;20050;-72
2021/01/27 06:41:21;;;;;;;30.17;16.90;;;;;;;0.53;82.15;100192.69;5060099;28;20050;-73
2021/01/27 06:43:55;;;;;;;29.15;17.05;;;;;;;0.41;82.74;100191.22;4991976;28;20042;-72
2021/01/27 06:46:44;;;;;;;27.90;16.63;;;;;;;0.45;82.39;100197.13;4992180;28;20073;-72
2021/01/27 06:49:27;;;;;;;27.77;16.63;;;;;;;0.31;82.79;100187.78;4991822;28;20042;-73
2021/01/27 06:52:17;;;;;;;33.25;17.88;;;;;;;0.28;82.65;100194.28;4991699;28;20050;-73
2021/01/27 06:54:53;;;;;;;32.47;17.50;;;;;;;0.24;83.49;100198.25;4992090;28;20037;-73
2021/01/27 06:57:26;;;;;;;30.27;17.25;;;;;;;0.23;82.66;100193.03;4991675;28;20689;-72
2021/01/27 07:00:31;;;;;;;32.67;18.02;;;;;;;0.29;83.21;100195.13;4972155;28;20133;-73
2021/01/27 07:03:35;;;;;;;29.95;17.73;;;;;;;0.34;83.05;100187.50;4995537;28;20560;-73
2021/01/27 07:06:52;;;;;;;27.98;17.17;;;;;;;0.11;83.08;100192.41;4991345;28;20079;-72
2021/01/27 07:09:46;;;;;;;32.55;17.08;;;;;;;0.09;83.68;100199.75;5005654;28;20046;-73
2021/01/27 07:12:44;;;;;;;30.15;18.08;;;;;;;0.10;83.99;100198.75;4961639;28;20054;-72
2021/01/27 07:15:37;;;;;;;33.00;17.67;;;;;;;-0.03;83.88;100196.44;4986161;28;20069;-74
2021/01/27 07:18:27;;;;;;;33.17;17.90;;;;;;;-0.13;84.35;100194.78;4989734;28;20132;-72
2021/01/27 07:20:59;;;;;;;33.90;19.83;;;;;;;-0.25;84.85;100202.16;4991401;28;20114;-73
2021/01/27 07:23:35;;;;;;;34.15;18.88;;;;;;;-0.25;84.49;100191.44;4991194;28;20122;-73
2021/01/27 07:26:21;;;;;;;35.85;18.65;;;;;;;-0.23;84.83;100188.63;5008460;28;20077;-73
2021/01/27 07:29:01;;;;;;;30.05;17.88;;;;;;;-0.13;84.52;100195.63;4990604;28;20503;-73
2021/01/27 07:31:45;;;;;;;31.90;18.65;;;;;;;0.90;80.73;100191.69;4990908;28;20122;-73
2021/01/27 07:34:19;;;;;;;28.45;15.65;;;;;;;1.12;78.50;100188.53;5039698;28;20038;-72
2021/01/27 07:37:01;;;;;;;30.58;15.73;;;;;;;2.57;73.44;100192.91;5008040;28;20103;-74
2021/01/27 07:39:50;;;;;;;26.80;14.57;;;;;;;4.36;65.50;100176.44;5000297;28;20061;-73
2021/01/27 07:42:38;;;;;;;24.20;14.15;;;;;;;5.03;62.35;100179.38;4985141;28;20073;-72
2021/01/27 07:45:11;;;;;;;26.73;15.60;;;;;;;4.83;61.36;100183.59;4988154;28;20095;-73
2021/01/27 07:47:46;;;;;;;24.13;15.93;;;;;;;2.91;69.06;100189.25;4972739;28;20062;-73
2021/01/27 07:50:15;;;;;;;23.50;15.15;;;;;;;1.96;72.05;100194.06;5007874;28;20054;-73
2021/01/27 07:52:56;;;;;;;24.50;15.60;;;;;;;3.24;69.80;100193.63;5032143;22;20050;-74
2021/01/27 07:55:32;;;;;;;22.02;14.52;;;;;;;5.82;59.62;100167.09;4997799;28;20219;-73
2021/01/27 07:58:04;;;;;;;20.25;13.23;;;;;;;6.87;55.77;100175.69;4990588;28;20052;-73
2021/01/27 08:00:36;;;;;;;19.73;13.50;;;;;;;8.54;50.00;100161.19;5007642;28;20140;-73
2021/01/27 08:03:26;;;;;;;18.13;12.07;;;;;;;10.21;44.81;100155.50;5010810;28;20045;-73
2021/01/27 08:05:59;;;;;;;18.33;12.48;;;;;;;11.43;41.32;100152.47;4993074;28;20152;-74
2021/01/27 08:08:25;;;;;;;18.10;12.40;;;;;;;13.11;37.12;100150.03;5028433;28;20499;-74
2021/01/27 08:10:52;;;;;;;17.17;11.93;;;;;;;11.96;38.82;100147.34;5010326;28;20045;-74
2021/01/27 08:13:35;;;;;;;16.77;13.18;;;;;;;12.93;37.60;100144.63;4993344;28;20060;-74
2021/01/27 08:16:15;;;;;;;15.70;11.90;;;;;;;10.20;42.60;100154.69;4993542;28;20045;-73
2021/01/27 08:19:12;;;;;;;16.92;11.88;;;;;;;11.22;40.92;100161.03;5026900;28;20055;-73
2021/01/27 08:21:51;;;;;;;17.38;11.93;;;;;;;13.10;36.63;100145.63;5009543;28;20046;-75
2021/01/27 08:24:35;;;;;;;16.13;11.80;;;;;;;12.56;37.36;100147.44;4996723;28;20053;-76
2021/01/27 08:27:14;;;;;;;17.02;11.30;;;;;;;15.67;31.65;100136.75;5000476;28;20115;-75
2021/01/27 08:29:42;;;;;;;15.27;11.27;;;;;;;14.45;33.08;100131.00;4991176;28;20073;-74
2021/01/27 08:32:29;;;;;;;13.43;11.10;;;;;;;11.82;37.46;100132.16;5009530;28;20045;-74
2021/01/27 08:34:59;;;;;;;15.38;11.48;;;;;;;9.24;43.77;100131.81;5002361;28;20418;-73
2021/01/27 08:37:31;;;;;;;15.52;12.10;;;;;;;6.92;50.56;100140.75;4978057;28;20057;-73
2021/01/27 08:40:16;;;;;;;16.55;11.45;;;;;;;6.43;51.70;100139.81;4983703;28;20074;-73
2021/01/27 08:42:50;;;;;;;16.73;12.02;;;;;;;5.69;54.40;100134.47;5004794;28;20056;-73
2021/01/27 08:45:32;;;;;;;18.52;12.52;;;;;;;5.05;57.18;100140.34;4994227;28;20234;-74
2021/01/27 08:48:00;;;;;;;17.92;11.85;;;;;;;5.51;56.68;100134.00;5012250;28;20735;-73
2021/01/27 08:50:45;;;;;;;18.50;11.98;;;;;;;5.81;54.86;100135.69;5012804;28;20037;-73
2021/01/27 08:53:15;;;;;;;16.75;10.93;;;;;;;6.18;53.44;100137.44;5012596;28;20053;-73
2021/01/27 08:55:44;;;;;;;15.75;11.57;;;;;;;7.02;51.50;100127.69;5013156;28;20102;-73
2021/01/27 08:58:22;;;;;;;17.25;10.90;;;;;;;7.20;49.91;100129.94;5029962;28;20110;-73
2021/01/27 09:00:50;;;;;;;27.30;11.02;;;;;;;7.92;49.19;100126.88;5030284;28;20042;-73
2021/01/27 09:03:42;;;;;;;14.52;10.35;;;;;;;8.95;45.24;100123.03;5012877;28;20141;-73
2021/01/27 09:06:20;;;;;;;14.30;10.05;;;;;;;10.39;41.69;100120.25;5012657;28;20033;-74
2021/01/27 09:08:48;;;;;;;12.63;9.20;;;;;;;10.54;41.08;100125.41;5024578;28;20053;-73
2021/01/27 09:11:17;;;;;;;11.43;8.18;;;;;;;9.81;42.47;100114.78;4993860;28;20608;-74
2021/01/27 09:13:45;;;;;;;13.27;9.07;;;;;;;11.07;40.14;100117.72;5013015;28;20077;-74
2021/01/27 09:16:18;;;;;;;12.68;9.15;;;;;;;9.79;42.42;100124.19;5020909;28;20052;-73
2021/01/27 09:19:04;;;;;;;16.73;11.75;;;;;;;10.05;41.74;100129.56;5017887;28;20054;-74
2021/01/27 09:21:32;;;;;;;17.98;9.25;;;;;;;10.03;42.14;100123.50;5012506;28;20065;-74
2021/01/27 09:24:17;;;;;;;13.35;9.75;;;;;;;10.16;41.62;100125.34;5012551;28;20129;-74
2021/01/27 09:26:46;;;;;;;12.00;8.82;;;;;;;10.63;40.43;100116.75;4996415;28;20050;-73
2021/01/27 09:29:19;;;;;;;14.48;8.85;;;;;;;10.42;40.97;100122.50;5012727;28;20053;-74
2021/01/27 09:31:46;;;;;;;11.98;8.68;;;;;;;11.87;37.48;100117.81;5012293;28;20125;-73
2021/01/27 09:34:15;;;;;;;10.50;7.07;;;;;;;9.87;41.17;100115.81;5012376;28;20061;-73
2021/01/27 09:36:43;;;;;;;16.27;8.65;;;;;;;8.75;44.21;100122.16;4989301;28;20113;-73
2021/01/27 09:39:10;;;;;;;11.93;7.75;;;;;;;8.84;43.83;100126.34;5006790;28;20061;-73
2021/01/27 09:41:41;;;;;;;11.30;7.75;;;;;;;9.53;43.38;100114.22;5010411;28;20505;-73
2021/01/27 09:44:19;;;;;;;14.20;8.23;;;;;;;10.18;41.18;100117.78;4982433;28;20447;-73
2021/01/27 09:46:45;;;;;;;11.32;8.35;;;;;;;11.12;39.13;100115.13;4996604;28;20056;-74
2021/01/27 09:49:14;;;;;;;12.15;8.10;;;;;;;11.46;38.58;100112.97;5013134;28;20045;-73
2021/01/27 09:51:49;;;;;;;10.82;7.30;;;;;;;10.04;40.88;100115.13;4996412;28;20049;-73
2021/01/27 09:54:17;;;;;;;10.32;7.03;;;;;;;10.17;40.94;100107.94;4996527;28;20059;-74
2021/01/27 09:56:44;;;;;;;11.65;7.47;;;;;;;9.97;40.94;100110.75;5012404;28;20136;-74
2021/01/27 09:59:15;;;;;;;10.50;8.00;;;;;;;10.26;40.85;100103.97;4996190;28;20122;-73
2021/01/27 10:01:47;;;;;;;10.15;7.63;;;;;;;10.61;39.64;100102.50;5010732;28;20130;-73
2021/01/27 10:04:30;;;;;;;11.18;6.80;;;;;;;9.16;42.52;100102.94;5012175;28;20510;-73
2021/01/27 10:07:33;;;;;;;9.55;6.80;;;;;;;9.64;41.77;100099.97;4986057;28;20080;-73
2021/01/27 10:10:07;;;;;;;10.85;6.25;;;;;;;9.28;42.67;100089.56;4982276;28;20058;-73
2021/01/27 10:12:34;;;;;;;23.10;6.95;;;;;;;11.38;38.48;100087.66;5004748;28;20061;-73
2021/01/27 10:15:29;;;;;;;12.13;6.75;;;;;;;11.24;37.76;100080.63;4984039;28;20050;-73
2021/01/27 10:18:08;;;;;;;11.52;6.50;;;;;;;11.09;37.72;100071.94;4992496;28;20511;-73
2021/01/27 10:20:40;;;;;;;10.35;6.45;;;;;;;12.37;36.32;100075.59;5012456;28;20515;-73
2021/01/27 10:23:11;;;;;;;25.42;7.57;;;;;;;11.21;36.64;100072.91;5029273;28;20053;-74
2021/01/27 10:25:44;;;;;;;15.90;6.22;;;;;;;10.05;39.29;100075.94;5028974;28;20073;-73
2021/01/27 10:28:18;;;;;;;10.52;5.85;;;;;;;11.17;37.12;100068.09;4995409;28;20052;-73
2021/01/27 10:30:53;;;;;;;23.45;6.88;;;;;;;12.18;35.39;100062.19;4995500;28;20045;-73
2021/01/27 10:33:44;;;;;;;10.65;7.20;;;;;;;13.02;33.49;100047.47;4996078;28;20075;-74
2021/01/27 10:36:37;;;;;;;14.88;6.50;;;;;;;13.66;32.58;100040.22;4981542;28;20045;-73
2021/01/27 10:39:24;;;;;;;17.63;6.53;;;;;;;13.44;32.40;100042.78;4985331;28;20049;-73
2021/01/27 10:42:04;;;;;;;8.15;6.28;;;;;;;13.47;32.10;100035.97;4992337;28;20037;-74
2021/01/27 10:44:34;;;;;;;12.95;6.10;;;;;;;13.22;32.70;100028.00;4994856;28;20046;-74
2021/01/27 10:47:18;;;;;;;7.95;5.60;;;;;;;12.55;33.40;100027.41;5011110;28;20053;-74
2021/01/27 10:49:47;;;;;;;11.77;5.88;;;;;;;12.06;33.97;100027.47;4995641;28;20506;-74
2021/01/27 10:52:26;;;;;;;10.60;5.57;;;;;;;10.37;37.35;100040.63;5011550;28;20045;-73
2021/01/27 10:55:06;;;;;;;14.35;6.13;;;;;;;8.67;41.63;100038.13;4994706;28;20054;-73
2021/01/27 10:57:33;;;;;;;10.07;5.50;;;;;;;7.97;43.44;100032.09;5052863;28;20072;-74
2021/01/27 10:59:59;;;;;;;9.75;6.00;;;;;;;7.29;44.79;100042.00;4995367;28;20058;-73
2021/01/27 11:02:28;;;;;;;15.88;6.03;;;;;;;6.65;47.33;100044.03;5029190;28;20049;-73
2021/01/27 11:04:54;;;;;;;11.70;6.60;;;;;;;6.17;48.75;100041.09;4996733;28;20070;-73
2021/01/27 11:07:21;;;;;;;13.02;6.63;;;;;;;6.25;48.81;100045.50;5015890;28;20132;-73
2021/01/27 11:09:47;;;;;;;14.52;6.10;;;;;;;6.21;49.12;100041.53;5015917;28;20073;-73
2021/01/27 11:12:14;;;;;;;11.32;5.90;;;;;;;6.26;48.14;100049.88;4997700;28;20105;-73
2021/01/27 11:14:40;;;;;;;12.38;6.15;;;;;;;5.78;49.40;100049.53;5012883;28;20078;-73
2021/01/27 11:17:07;;;;;;;26.23;6.80;;;;;;;6.34;49.15;100042.50;5006531;28;20102;-73
2021/01/27 11:19:33;;;;;;;11.02;6.20;;;;;;;6.15;48.24;100047.72;5026084;28;20078;-73
2021/01/27 11:22:00;;;;;;;10.63;6.60;;;;;;;6.43;48.09;100037.78;5030264;28;20045;-73
2021/01/27 11:24:26;;;;;;;16.10;6.65;;;;;;;6.60;47.80;100033.78;5034264;28;20470;-73
2021/01/27 11:26:53;;;;;;;11.43;6.28;;;;;;;6.45;48.10;100032.19;5012943;28;20073;-73
2021/01/27 11:29:21;;;;;;;15.95;6.35;;;;;;;6.43;48.66;100026.13;4978824;28;20049;-73
2021/01/27 11:31:47;;;;;;;15.93;6.68;;;;;;;6.53;48.34;100024.78;4994998;28;20102;-74
2021/01/27 11:34:14;;;;;;;14.45;6.70;;;;;;;6.48;48.75;100027.22;4963344;28;20038;-74
2021/01/27 11:36:42;;;;;;;31.35;7.35;;;;;;;6.55;48.53;100006.47;5000164;28;20056;-73
2021/01/27 11:39:10;;;;;;;13.32;6.10;;;;;;;6.54;47.72;100025.63;4998100;28;20070;-73
2021/01/27 11:41:36;;;;;;;11.30;6.20;;;;;;;6.22;48.50;100024.28;5027410;28;20136;-73
2021/01/27 11:44:04;;;;;;;14.35;6.88;;;;;;;6.31;48.88;100018.53;4995012;28;20049;-74
2021/01/27 11:46:36;;;;;;;17.15;5.90;;;;;;;6.49;48.03;100020.78;4996417;28;20061;-74
2021/01/27 11:49:03;;;;;;;9.40;5.65;;;;;;;6.88;47.19;100011.31;5010590;28;20053;-74